Friedman Memorial Airport Hailey US
ICAO: KSUN
IATA: SUN
Category: Medium
Scheduled Services: Yes

Elevation: 5318 ft
TransAlt. 18000 ft.

Airport Communications:
ATIS:128.225
AWOS:128.225
SALT LAKE CITY CNTR:118.05
CTAF:125.6
GND:121.7
BOISE RDO:122.4
HAILEY TWR:125.6
UNICOM:122.95

KSUN Zoom In..

Runways:

(A) RW 13 length 7550 ft width 100 ft
---- / hdg 129

(B) RW 31 length 7550 ft width 100 ft
---- / hdg 309

Location; KSUN
Day. 22 / Time. 23.47 Zulu
* Altimeter: 30.17
* Temperature: -02° c. -28.4°f.
* Wind from: 000° Speed 00 kn.
Dewpoint: -04° c.
Visibility: 10 Statute Miles.
Clouds: Scattered 1500 ft.

KSUN 222347Z 00000KT 10SM SCT015 M02/M04 A3017


Wind - Calm.

YouTube Music Video
 
jpsmedia.com for Web Design  worldairports.se 2018   terms of use